createdAt,value
2018-03-15T00:00:04.353Z,2.4
2018-03-15T00:05:03.163Z,2.4
2018-03-15T00:10:02.596Z,2.4
2018-03-15T00:15:03.431Z,2.4
2018-03-15T00:20:03.023Z,2.4
2018-03-15T00:25:02.726Z,2.2
2018-03-15T00:30:03.258Z,2.0
2018-03-15T00:35:02.711Z,2.2
2018-03-15T00:40:03.283Z,2.0
2018-03-15T00:45:02.710Z,2.0
2018-03-15T00:50:03.191Z,2.2
2018-03-15T00:55:02.659Z,2.0
2018-03-15T01:00:03.139Z,2.0
2018-03-15T01:05:02.658Z,2.0
2018-03-15T01:10:03.262Z,2.0
2018-03-15T01:15:02.748Z,2.0
2018-03-15T01:20:03.269Z,2.0
2018-03-15T01:25:02.701Z,1.8
2018-03-15T01:30:03.191Z,1.8
2018-03-15T01:35:02.704Z,1.8
2018-03-15T01:40:03.260Z,1.8
2018-03-15T01:45:02.666Z,1.7
2018-03-15T01:50:03.159Z,1.7
2018-03-15T01:55:02.638Z,1.6
2018-03-15T02:00:03.348Z,1.7
2018-03-15T02:05:02.809Z,1.7
2018-03-15T02:10:03.316Z,1.7
2018-03-15T02:15:02.717Z,1.7
2018-03-15T02:20:03.366Z,1.7
2018-03-15T02:25:02.843Z,1.6
2018-03-15T02:30:03.392Z,1.6
2018-03-15T02:35:02.946Z,1.6
2018-03-15T02:40:02.499Z,1.6
2018-03-15T02:45:02.967Z,1.6
2018-03-15T02:50:02.529Z,1.6
2018-03-15T02:55:03.043Z,1.6
2018-03-15T03:00:02.527Z,1.7
2018-03-15T03:05:03.042Z,1.6
2018-03-15T03:10:02.684Z,1.6
2018-03-15T03:15:03.132Z,1.3
2018-03-15T03:20:02.637Z,1.6
2018-03-15T03:25:03.131Z,1.6
2018-03-15T03:30:02.673Z,1.6
2018-03-15T03:35:03.119Z,1.6
2018-03-15T03:40:02.685Z,1.3
2018-03-15T03:45:03.191Z,1.6
2018-03-15T03:50:02.607Z,1.3
2018-03-15T03:55:03.105Z,1.3
2018-03-15T04:00:02.874Z,1.3
2018-03-15T04:05:02.426Z,1.3
2018-03-15T04:10:02.955Z,1.3
2018-03-15T04:15:02.515Z,1.6
2018-03-15T04:20:03.018Z,1.6
2018-03-15T04:25:02.462Z,1.3
2018-03-15T04:30:02.907Z,1.6
2018-03-15T04:35:03.364Z,1.3
2018-03-15T04:40:02.876Z,1.6
2018-03-15T04:45:02.416Z,1.6
2018-03-15T04:50:02.965Z,1.6
2018-03-15T04:55:02.382Z,1.7
2018-03-15T05:00:02.826Z,1.7
2018-03-15T05:05:03.285Z,1.6
2018-03-15T05:10:02.751Z,1.6
2018-03-15T05:15:03.221Z,1.6
2018-03-15T05:20:02.672Z,1.6
2018-03-15T05:25:03.244Z,1.6
2018-03-15T05:30:02.732Z,1.6
2018-03-15T05:35:03.328Z,1.6
2018-03-15T05:40:02.816Z,1.6
2018-03-15T05:45:03.312Z,1.6
2018-03-15T05:50:02.811Z,1.6
2018-03-15T05:55:03.336Z,1.7
2018-03-15T06:00:02.845Z,1.7
2018-03-15T06:05:03.285Z,1.7
2018-03-15T06:10:02.765Z,1.7
2018-03-15T06:15:03.144Z,1.7
2018-03-15T06:20:02.641Z,1.8
2018-03-15T06:25:03.141Z,1.8
2018-03-15T06:30:02.670Z,1.8
2018-03-15T06:35:03.231Z,2.0
2018-03-15T06:40:02.731Z,2.2
2018-03-15T06:45:03.243Z,2.4
2018-03-15T06:50:02.696Z,2.4
2018-03-15T06:55:03.285Z,2.5
2018-03-15T07:00:02.703Z,2.5
2018-03-15T07:05:03.212Z,2.7
2018-03-15T07:10:02.736Z,2.7
2018-03-15T07:15:03.307Z,3.0
2018-03-15T07:20:02.872Z,3.2
2018-03-15T07:25:03.322Z,3.2
2018-03-15T07:30:02.758Z,3.5
2018-03-15T07:35:03.277Z,3.7
2018-03-15T07:40:02.816Z,3.7
2018-03-15T07:45:03.313Z,4.0
2018-03-15T07:50:02.834Z,4.0
2018-03-15T07:55:03.353Z,4.0
2018-03-15T08:00:02.867Z,4.5
2018-03-15T08:05:02.399Z,5.0
2018-03-15T08:10:02.883Z,5.0
2018-03-15T08:15:03.278Z,5.0
2018-03-15T08:20:02.855Z,5.0
2018-03-15T08:25:03.324Z,5.4
2018-03-15T08:30:02.947Z,5.8
2018-03-15T08:35:02.689Z,6.0
2018-03-15T08:40:03.289Z,6.9
2018-03-15T08:45:02.759Z,7.6
2018-03-15T08:50:02.422Z,7.1
2018-03-15T08:55:02.855Z,7.6
2018-03-15T09:00:02.399Z,7.6
2018-03-15T09:05:02.936Z,7.6
2018-03-15T09:10:02.436Z,7.9
2018-03-15T09:15:02.944Z,7.9
2018-03-15T09:20:02.510Z,8.0
2018-03-15T09:25:03.013Z,8.0
2018-03-15T09:30:02.434Z,8.1
2018-03-15T09:35:03.066Z,8.1
2018-03-15T09:40:02.764Z,8.8
2018-03-15T09:45:03.333Z,8.8
2018-03-15T09:50:02.951Z,8.6
2018-03-15T09:55:02.565Z,9.0
2018-03-15T10:00:03.157Z,9.3
2018-03-15T10:05:02.890Z,9.1
2018-03-15T10:10:02.547Z,9.5
2018-03-15T10:15:03.201Z,9.5
2018-03-15T10:20:02.814Z,10.1
2018-03-15T10:25:13.607Z,10.0
2018-03-15T10:30:02.712Z,10.1
2018-03-15T10:35:03.341Z,9.6
2018-03-15T10:40:03.183Z,10.0
2018-03-15T10:45:02.737Z,11.3
2018-03-15T10:50:02.414Z,10.6
2018-03-15T10:55:03.103Z,10.5
2018-03-15T11:00:02.752Z,10.6
2018-03-15T11:05:02.844Z,11.3
2018-03-15T11:10:02.420Z,11.1
2018-03-15T11:15:02.966Z,11.1
2018-03-15T11:20:02.548Z,11.3
2018-03-15T11:25:03.131Z,11.3
2018-03-15T11:30:02.912Z,11.6
2018-03-15T11:35:03.096Z,11.6
2018-03-15T11:40:02.704Z,11.6
2018-03-15T11:45:03.303Z,11.3
2018-03-15T11:50:02.931Z,11.3
2018-03-15T11:55:02.455Z,11.1
2018-03-15T12:00:03.025Z,11.0
2018-03-15T12:05:02.701Z,11.3
2018-03-15T12:10:03.236Z,11.3
2018-03-15T12:15:02.778Z,11.6
2018-03-15T12:20:03.371Z,11.6
2018-03-15T12:25:02.794Z,12.1
2018-03-15T12:30:03.240Z,11.6
2018-03-15T12:35:02.778Z,11.6
2018-03-15T12:40:03.256Z,11.6
2018-03-15T12:45:02.716Z,11.8
2018-03-15T12:50:03.278Z,11.6
2018-03-15T12:55:02.683Z,11.3
2018-03-15T13:00:03.180Z,11.6
2018-03-15T13:05:02.649Z,11.3
2018-03-15T13:10:03.211Z,11.3
2018-03-15T13:15:02.655Z,11.3
2018-03-15T13:20:03.121Z,11.3
2018-03-15T13:25:02.540Z,11.3
2018-03-15T13:30:03.041Z,11.3
2018-03-15T13:35:02.536Z,11.3
2018-03-15T13:40:03.057Z,11.6
2018-03-15T13:45:02.595Z,11.3
2018-03-15T13:50:03.363Z,11.3
2018-03-15T13:55:02.842Z,11.3
2018-03-15T14:00:02.396Z,11.6
2018-03-15T14:05:02.956Z,11.3
2018-03-15T14:10:02.558Z,11.3
2018-03-15T14:15:03.096Z,11.6
2018-03-15T14:20:02.516Z,11.6
2018-03-15T14:25:02.986Z,11.6
2018-03-15T14:30:02.498Z,11.6
2018-03-15T14:35:03.031Z,11.6
2018-03-15T14:40:02.630Z,11.6
2018-03-15T14:45:03.194Z,11.6
2018-03-15T14:50:02.647Z,11.6
2018-03-15T14:55:03.135Z,11.6
2018-03-15T15:00:02.623Z,11.6
2018-03-15T15:05:03.137Z,11.6
2018-03-15T15:10:02.666Z,11.6
2018-03-15T15:15:03.109Z,11.6
2018-03-15T15:20:02.592Z,11.3
2018-03-15T15:25:03.037Z,11.3
2018-03-15T15:30:02.458Z,11.3
2018-03-15T15:35:02.899Z,11.3
2018-03-15T15:40:02.442Z,11.1
2018-03-15T15:45:02.925Z,11.0
2018-03-15T15:50:03.379Z,11.0
2018-03-15T15:55:02.829Z,11.0
2018-03-15T16:00:03.326Z,11.0
2018-03-15T16:05:02.872Z,11.0
2018-03-15T16:10:03.354Z,11.0
2018-03-15T16:15:02.787Z,10.8
2018-03-15T16:20:03.249Z,10.8
2018-03-15T16:25:02.747Z,10.8
2018-03-15T16:30:03.173Z,10.6
2018-03-15T16:35:02.658Z,10.5
2018-03-15T16:40:03.140Z,10.3
2018-03-15T16:45:02.563Z,10.1
2018-03-15T16:50:03.034Z,10.1
2018-03-15T16:55:02.673Z,10.1
2018-03-15T17:00:03.267Z,10.0
2018-03-15T17:05:03.017Z,9.8
2018-03-15T17:10:02.608Z,9.8
2018-03-15T17:15:03.121Z,9.5
2018-03-15T17:20:03.047Z,9.3
2018-03-15T17:25:02.929Z,9.3
2018-03-15T17:30:03.368Z,9.3
2018-03-15T17:35:02.895Z,9.1
2018-03-15T17:40:02.416Z,9.0
2018-03-15T17:45:02.920Z,9.0
2018-03-15T17:50:02.420Z,8.8
2018-03-15T17:55:02.827Z,8.6
2018-03-15T18:00:03.350Z,8.6
2018-03-15T18:05:02.801Z,8.6
2018-03-15T18:10:03.284Z,8.6
2018-03-15T18:15:02.694Z,8.6
2018-03-15T18:20:03.571Z,8.5
2018-03-15T18:25:03.110Z,8.5
2018-03-15T18:30:02.626Z,8.3
2018-03-15T18:35:03.216Z,8.3
2018-03-15T18:40:02.776Z,8.3
2018-03-15T18:45:03.284Z,8.3
2018-03-15T18:50:02.680Z,8.1
2018-03-15T18:55:03.219Z,8.1
2018-03-15T19:00:02.744Z,8.1
2018-03-15T19:05:03.231Z,8.0
2018-03-15T19:10:02.789Z,8.0
2018-03-15T19:15:03.261Z,8.0
2018-03-15T19:20:02.721Z,8.0
2018-03-15T19:25:03.045Z,8.0
2018-03-15T19:30:02.523Z,7.9
2018-03-15T19:35:03.041Z,7.9
2018-03-15T19:40:02.592Z,8.0
2018-03-15T19:45:03.045Z,7.9
2018-03-15T19:50:02.578Z,7.9
2018-03-15T19:55:03.087Z,7.9
2018-03-15T20:00:02.534Z,7.9
2018-03-15T20:05:03.044Z,7.9
2018-03-15T20:10:02.624Z,7.9
2018-03-15T20:15:03.104Z,8.0
2018-03-15T20:20:02.577Z,7.9
2018-03-15T20:25:03.011Z,7.9
2018-03-15T20:30:02.500Z,7.9
2018-03-15T20:35:03.022Z,7.9
2018-03-15T20:40:02.534Z,7.9
2018-03-15T20:45:03.064Z,7.9
2018-03-15T20:50:02.614Z,7.9
2018-03-15T20:55:03.090Z,7.6
2018-03-15T21:00:02.602Z,7.5
2018-03-15T21:05:02.682Z,7.5
2018-03-15T21:10:03.305Z,7.4
2018-03-15T21:15:02.828Z,7.1
2018-03-15T21:20:03.313Z,7.0
2018-03-15T21:25:02.753Z,5.9
2018-03-15T21:30:03.315Z,5.4
2018-03-15T21:35:02.884Z,5.4
2018-03-15T21:40:02.397Z,5.4
2018-03-15T21:45:02.818Z,5.4
2018-03-15T21:50:03.345Z,5.4
2018-03-15T21:55:02.790Z,5.4
2018-03-15T22:00:03.350Z,5.4
2018-03-15T22:05:02.796Z,5.4
2018-03-15T22:10:02.393Z,5.4
2018-03-15T22:15:02.908Z,5.3
2018-03-15T22:20:02.480Z,5.3
2018-03-15T22:25:02.935Z,5.3
2018-03-15T22:30:03.774Z,5.3
2018-03-15T22:35:03.245Z,5.3
2018-03-15T22:40:02.839Z,5.3
2018-03-15T22:45:03.289Z,5.3
2018-03-15T22:50:02.768Z,5.3
2018-03-15T22:55:03.255Z,5.3
2018-03-15T23:00:02.907Z,5.3
2018-03-15T23:05:02.373Z,5.3
2018-03-15T23:10:03.169Z,5.3
2018-03-15T23:15:02.574Z,5.3
2018-03-15T23:20:03.009Z,5.3
2018-03-15T23:25:02.450Z,5.0
2018-03-15T23:30:03.007Z,5.0
2018-03-15T23:35:02.508Z,5.0
2018-03-15T23:40:03.092Z,5.0
2018-03-15T23:45:02.574Z,5.0
2018-03-15T23:50:03.119Z,5.0
2018-03-15T23:55:02.619Z,5.0
